Startpagina
METAR-TAF:

METAR-TAF

Vliegvelden :

Aeroporto João Paulo II

Ponta Delgada, Azoren, Portugal

breedte: 37-44N, lengte: 025-42W, hoogte: 71 m

Actueel weer

Dit bericht is 36 minuten geleden gemaakt, om 13:30 UTC
Wind 8 kt uit het zuidoosten, variërend tussen het oostzuidoosten en het zuiden
Temperatuur 17°C
Vochtigheid 59%
Druk 1029 hPa
Zicht 10 km of meer
Weinig wolken op 2500 ft

METAR: LPPD 261330Z 14008KT 110V170 9999 FEW025 17/09 Q1029

Tijdstip: 14:06 (14:06 UTC)

Verwachting

Dit bericht is 3 uur en het 6 minuten geleden gemaakt, om 11:00 UTC
Verwachting geldig van 26 om 12 UTC tot 27 om 12 UTC
Wind 10 kt uit het oostzuidoosten
Zicht 10 km of meer
Weinig wolken op 2000 ft
Tijdelijke
van 26 om 12 UTC tot 27 om 12 UTC
Weinig wolken op 1800 ft
Gebroken wolken op 3500 ft

TAF: LPPD 261100Z 2612/2712 12010KT 9999 FEW020 TEMPO 2612/2712 FEW018 BKN035

Waarnemingen en weersverwachtingen van meer dan 4000 vliegvelden (METAR en TAF).

De beschikbare stations zijn de gele en rode punten op de kaart.

Ga met uw muis naar het station om de naam te zien.

Klik dan om waarnemingen en weersverwachtingen te zien.

kaart wijzigen: klik op de groene knoppen met een zwart kruis om in te zoomen, op de groene knop met een streepje om uit te zoomen of op de groene pijlen voor aangrenzende kaarten.


METAR-TAF: